sensor_id;sensor_type;location;lat;lon;timestamp;P1;durP1;ratioP1;P2;durP2;ratioP2
22963;SDS011;11648;49.306;6.934;2023-04-15T00:01:35;6.03;;;2.67;;
22963;SDS011;11648;49.306;6.934;2023-04-15T00:04:02;5.50;;;2.40;;
22963;SDS011;11648;49.306;6.934;2023-04-15T00:06:30;6.93;;;3.13;;
22963;SDS011;11648;49.306;6.934;2023-04-15T00:08:57;6.90;;;3.30;;
22963;SDS011;11648;49.306;6.934;2023-04-15T00:11:24;7.60;;;3.30;;
22963;SDS011;11648;49.306;6.934;2023-04-15T00:13:51;4.63;;;2.40;;
22963;SDS011;11648;49.306;6.934;2023-04-15T00:16:18;5.67;;;2.37;;
22963;SDS011;11648;49.306;6.934;2023-04-15T00:18:44;7.53;;;2.40;;
22963;SDS011;11648;49.306;6.934;2023-04-15T00:21:11;7.50;;;2.50;;
22963;SDS011;11648;49.306;6.934;2023-04-15T00:23:38;5.47;;;2.20;;
22963;SDS011;11648;49.306;6.934;2023-04-15T00:26:05;5.97;;;2.27;;
22963;SDS011;11648;49.306;6.934;2023-04-15T00:28:32;5.20;;;2.10;;
22963;SDS011;11648;49.306;6.934;2023-04-15T00:30:59;4.60;;;2.20;;
22963;SDS011;11648;49.306;6.934;2023-04-15T00:33:26;5.30;;;2.43;;
22963;SDS011;11648;49.306;6.934;2023-04-15T00:35:53;5.90;;;2.00;;
22963;SDS011;11648;49.306;6.934;2023-04-15T00:38:19;4.33;;;1.80;;
22963;SDS011;11648;49.306;6.934;2023-04-15T00:40:46;8.27;;;2.00;;
22963;SDS011;11648;49.306;6.934;2023-04-15T00:43:13;5.20;;;1.90;;
22963;SDS011;11648;49.306;6.934;2023-04-15T00:45:43;6.40;;;2.30;;
22963;SDS011;11648;49.306;6.934;2023-04-15T00:48:10;5.83;;;1.60;;
22963;SDS011;11648;49.306;6.934;2023-04-15T00:50:37;8.03;;;2.03;;
22963;SDS011;11648;49.306;6.934;2023-04-15T00:53:04;6.50;;;1.73;;
22963;SDS011;11648;49.306;6.934;2023-04-15T00:55:31;5.83;;;1.87;;
22963;SDS011;11648;49.306;6.934;2023-04-15T00:57:58;5.30;;;1.90;;
22963;SDS011;11648;49.306;6.934;2023-04-15T01:00:25;4.57;;;1.63;;
22963;SDS011;11648;49.306;6.934;2023-04-15T01:02:52;4.77;;;1.90;;
22963;SDS011;11648;49.306;6.934;2023-04-15T01:05:19;3.90;;;1.93;;
22963;SDS011;11648;49.306;6.934;2023-04-15T01:07:46;4.47;;;2.20;;
22963;SDS011;11648;49.306;6.934;2023-04-15T01:10:14;4.37;;;1.87;;
22963;SDS011;11648;49.306;6.934;2023-04-15T01:12:41;5.83;;;1.77;;
22963;SDS011;11648;49.306;6.934;2023-04-15T01:15:08;5.93;;;2.30;;
22963;SDS011;11648;49.306;6.934;2023-04-15T01:17:36;6.20;;;1.83;;
22963;SDS011;11648;49.306;6.934;2023-04-15T01:20:05;5.03;;;1.80;;
22963;SDS011;11648;49.306;6.934;2023-04-15T01:22:36;4.33;;;1.83;;
22963;SDS011;11648;49.306;6.934;2023-04-15T01:25:10;4.00;;;1.80;;
22963;SDS011;11648;49.306;6.934;2023-04-15T01:27:38;6.97;;;2.30;;
22963;SDS011;11648;49.306;6.934;2023-04-15T01:30:08;5.33;;;2.10;;
22963;SDS011;11648;49.306;6.934;2023-04-15T01:32:36;3.93;;;2.07;;
22963;SDS011;11648;49.306;6.934;2023-04-15T01:35:21;6.73;;;2.97;;
22963;SDS011;11648;49.306;6.934;2023-04-15T01:37:50;7.73;;;2.83;;
22963;SDS011;11648;49.306;6.934;2023-04-15T01:40:17;7.03;;;2.20;;
22963;SDS011;11648;49.306;6.934;2023-04-15T01:42:45;5.07;;;1.80;;
22963;SDS011;11648;49.306;6.934;2023-04-15T01:45:15;3.93;;;1.47;;
22963;SDS011;11648;49.306;6.934;2023-04-15T01:47:44;4.80;;;1.77;;
22963;SDS011;11648;49.306;6.934;2023-04-15T01:50:12;5.77;;;2.43;;
22963;SDS011;11648;49.306;6.934;2023-04-15T01:52:40;4.53;;;1.90;;
22963;SDS011;11648;49.306;6.934;2023-04-15T01:55:11;3.73;;;1.90;;
22963;SDS011;11648;49.306;6.934;2023-04-15T01:57:40;6.53;;;2.10;;
22963;SDS011;11648;49.306;6.934;2023-04-15T02:00:09;6.10;;;2.20;;
22963;SDS011;11648;49.306;6.934;2023-04-15T02:02:42;4.43;;;1.97;;
22963;SDS011;11648;49.306;6.934;2023-04-15T02:05:10;4.07;;;1.63;;
22963;SDS011;11648;49.306;6.934;2023-04-15T02:07:38;2.53;;;1.40;;
22963;SDS011;11648;49.306;6.934;2023-04-15T02:10:06;7.53;;;1.77;;
22963;SDS011;11648;49.306;6.934;2023-04-15T02:12:35;4.47;;;1.47;;
22963;SDS011;11648;49.306;6.934;2023-04-15T02:15:03;5.43;;;1.80;;
22963;SDS011;11648;49.306;6.934;2023-04-15T02:17:35;5.80;;;1.57;;
22963;SDS011;11648;49.306;6.934;2023-04-15T02:20:04;4.67;;;1.50;;
22963;SDS011;11648;49.306;6.934;2023-04-15T02:22:33;4.70;;;1.67;;
22963;SDS011;11648;49.306;6.934;2023-04-15T02:25:01;5.27;;;1.30;;
22963;SDS011;11648;49.306;6.934;2023-04-15T02:27:31;4.75;;;1.67;;
22963;SDS011;11648;49.306;6.934;2023-04-15T02:29:59;5.40;;;2.00;;
22963;SDS011;11648;49.306;6.934;2023-04-15T02:32:27;4.40;;;2.10;;
22963;SDS011;11648;49.306;6.934;2023-04-15T02:34:56;5.97;;;1.97;;
22963;SDS011;11648;49.306;6.934;2023-04-15T02:37:29;4.80;;;1.83;;
22963;SDS011;11648;49.306;6.934;2023-04-15T02:39:58;5.80;;;2.10;;
22963;SDS011;11648;49.306;6.934;2023-04-15T02:42:27;5.57;;;2.53;;
22963;SDS011;11648;49.306;6.934;2023-04-15T02:45:00;6.77;;;2.10;;
22963;SDS011;11648;49.306;6.934;2023-04-15T02:47:32;4.77;;;2.10;;
22963;SDS011;11648;49.306;6.934;2023-04-15T02:50:04;5.87;;;1.90;;
22963;SDS011;11648;49.306;6.934;2023-04-15T02:52:34;6.27;;;2.37;;
22963;SDS011;11648;49.306;6.934;2023-04-15T02:55:03;8.50;;;2.20;;
22963;SDS011;11648;49.306;6.934;2023-04-15T02:57:31;6.37;;;2.10;;
22963;SDS011;11648;49.306;6.934;2023-04-15T03:00:04;7.37;;;2.20;;
22963;SDS011;11648;49.306;6.934;2023-04-15T03:02:38;5.10;;;2.03;;
22963;SDS011;11648;49.306;6.934;2023-04-15T03:05:10;5.17;;;2.10;;
22963;SDS011;11648;49.306;6.934;2023-04-15T03:07:41;4.37;;;2.00;;
22963;SDS011;11648;49.306;6.934;2023-04-15T03:10:10;6.00;;;1.90;;
22963;SDS011;11648;49.306;6.934;2023-04-15T03:12:39;4.67;;;1.80;;
22963;SDS011;11648;49.306;6.934;2023-04-15T03:15:10;5.87;;;1.90;;
22963;SDS011;11648;49.306;6.934;2023-04-15T03:17:43;3.70;;;1.60;;
22963;SDS011;11648;49.306;6.934;2023-04-15T03:20:11;6.57;;;2.23;;
22963;SDS011;11648;49.306;6.934;2023-04-15T03:22:39;3.57;;;1.60;;
22963;SDS011;11648;49.306;6.934;2023-04-15T03:25:08;4.53;;;1.60;;
22963;SDS011;11648;49.306;6.934;2023-04-15T03:27:37;6.77;;;1.70;;
22963;SDS011;11648;49.306;6.934;2023-04-15T03:30:05;3.30;;;1.40;;
22963;SDS011;11648;49.306;6.934;2023-04-15T03:32:36;4.83;;;1.40;;
22963;SDS011;11648;49.306;6.934;2023-04-15T03:35:06;5.43;;;1.67;;
22963;SDS011;11648;49.306;6.934;2023-04-15T03:37:35;5.00;;;1.77;;
22963;SDS011;11648;49.306;6.934;2023-04-15T03:40:03;4.37;;;1.67;;
22963;SDS011;11648;49.306;6.934;2023-04-15T03:42:32;5.80;;;1.80;;
22963;SDS011;11648;49.306;6.934;2023-04-15T03:45:00;5.03;;;1.80;;
22963;SDS011;11648;49.306;6.934;2023-04-15T03:47:28;4.73;;;1.60;;
22963;SDS011;11648;49.306;6.934;2023-04-15T03:49:56;7.80;;;1.90;;
22963;SDS011;11648;49.306;6.934;2023-04-15T03:52:24;3.87;;;1.40;;
22963;SDS011;11648;49.306;6.934;2023-04-15T03:54:52;5.83;;;1.70;;
22963;SDS011;11648;49.306;6.934;2023-04-15T03:57:20;4.00;;;1.50;;
22963;SDS011;11648;49.306;6.934;2023-04-15T03:59:48;4.37;;;1.70;;
22963;SDS011;11648;49.306;6.934;2023-04-15T04:02:16;3.97;;;1.73;;
22963;SDS011;11648;49.306;6.934;2023-04-15T04:04:44;5.40;;;1.90;;
22963;SDS011;11648;49.306;6.934;2023-04-15T04:07:16;4.33;;;1.63;;
22963;SDS011;11648;49.306;6.934;2023-04-15T04:09:44;4.03;;;1.50;;
22963;SDS011;11648;49.306;6.934;2023-04-15T04:12:14;4.17;;;1.70;;
22963;SDS011;11648;49.306;6.934;2023-04-15T04:14:42;3.90;;;1.40;;
22963;SDS011;11648;49.306;6.934;2023-04-15T04:17:10;2.83;;;1.60;;
22963;SDS011;11648;49.306;6.934;2023-04-15T04:19:38;6.03;;;2.00;;
22963;SDS011;11648;49.306;6.934;2023-04-15T04:22:06;3.13;;;1.60;;
22963;SDS011;11648;49.306;6.934;2023-04-15T04:24:34;4.83;;;1.80;;
22963;SDS011;11648;49.306;6.934;2023-04-15T04:27:02;5.43;;;1.80;;
22963;SDS011;11648;49.306;6.934;2023-04-15T04:29:30;4.40;;;1.70;;
22963;SDS011;11648;49.306;6.934;2023-04-15T04:31:58;4.23;;;1.80;;
22963;SDS011;11648;49.306;6.934;2023-04-15T04:34:26;5.73;;;1.70;;
22963;SDS011;11648;49.306;6.934;2023-04-15T04:36:54;3.83;;;1.73;;
22963;SDS011;11648;49.306;6.934;2023-04-15T04:39:22;4.00;;;1.60;;
22963;SDS011;11648;49.306;6.934;2023-04-15T04:41:50;3.17;;;1.33;;
22963;SDS011;11648;49.306;6.934;2023-04-15T04:44:21;3.00;;;1.37;;
22963;SDS011;11648;49.306;6.934;2023-04-15T04:46:49;4.00;;;1.60;;
22963;SDS011;11648;49.306;6.934;2023-04-15T04:49:17;4.60;;;1.77;;
22963;SDS011;11648;49.306;6.934;2023-04-15T04:51:45;4.60;;;1.50;;
22963;SDS011;11648;49.306;6.934;2023-04-15T04:54:15;3.73;;;1.50;;
22963;SDS011;11648;49.306;6.934;2023-04-15T04:56:43;4.07;;;1.60;;
22963;SDS011;11648;49.306;6.934;2023-04-15T04:59:11;4.57;;;1.70;;
22963;SDS011;11648;49.306;6.934;2023-04-15T05:01:39;5.43;;;1.90;;
22963;SDS011;11648;49.306;6.934;2023-04-15T05:04:07;6.07;;;1.90;;
22963;SDS011;11648;49.306;6.934;2023-04-15T05:06:36;4.67;;;1.70;;
22963;SDS011;11648;49.306;6.934;2023-04-15T05:09:04;3.77;;;1.80;;
22963;SDS011;11648;49.306;6.934;2023-04-15T05:11:32;3.90;;;1.50;;
22963;SDS011;11648;49.306;6.934;2023-04-15T05:14:00;3.40;;;1.50;;
22963;SDS011;11648;49.306;6.934;2023-04-15T05:16:29;4.87;;;1.67;;
22963;SDS011;11648;49.306;6.934;2023-04-15T05:18:57;3.40;;;1.40;;
22963;SDS011;11648;49.306;6.934;2023-04-15T05:21:25;7.30;;;3.57;;
22963;SDS011;11648;49.306;6.934;2023-04-15T05:23:54;4.37;;;2.30;;
22963;SDS011;11648;49.306;6.934;2023-04-15T05:26:22;5.23;;;2.00;;
22963;SDS011;11648;49.306;6.934;2023-04-15T05:28:53;5.20;;;2.07;;
22963;SDS011;11648;49.306;6.934;2023-04-15T05:31:21;4.80;;;2.57;;
22963;SDS011;11648;49.306;6.934;2023-04-15T05:33:49;8.13;;;2.57;;
22963;SDS011;11648;49.306;6.934;2023-04-15T05:36:18;4.60;;;2.10;;
22963;SDS011;11648;49.306;6.934;2023-04-15T05:38:45;5.50;;;2.40;;
22963;SDS011;11648;49.306;6.934;2023-04-15T05:41:14;4.50;;;2.30;;
22963;SDS011;11648;49.306;6.934;2023-04-15T05:43:46;7.23;;;2.00;;
22963;SDS011;11648;49.306;6.934;2023-04-15T05:46:14;5.47;;;2.17;;
22963;SDS011;11648;49.306;6.934;2023-04-15T05:48:43;4.73;;;1.70;;
22963;SDS011;11648;49.306;6.934;2023-04-15T05:51:11;4.30;;;1.73;;
22963;SDS011;11648;49.306;6.934;2023-04-15T05:53:39;4.33;;;1.93;;
22963;SDS011;11648;49.306;6.934;2023-04-15T05:56:08;4.80;;;2.07;;
22963;SDS011;11648;49.306;6.934;2023-04-15T05:58:36;4.80;;;2.20;;
22963;SDS011;11648;49.306;6.934;2023-04-15T06:01:04;5.33;;;1.90;;
22963;SDS011;11648;49.306;6.934;2023-04-15T06:03:33;6.87;;;2.70;;
22963;SDS011;11648;49.306;6.934;2023-04-15T06:06:01;7.57;;;2.77;;
22963;SDS011;11648;49.306;6.934;2023-04-15T06:08:29;6.93;;;2.70;;
22963;SDS011;11648;49.306;6.934;2023-04-15T06:10:57;6.80;;;2.67;;
22963;SDS011;11648;49.306;6.934;2023-04-15T06:13:25;6.70;;;2.10;;
22963;SDS011;11648;49.306;6.934;2023-04-15T06:15:53;5.40;;;2.50;;
22963;SDS011;11648;49.306;6.934;2023-04-15T06:18:22;5.77;;;2.10;;
22963;SDS011;11648;49.306;6.934;2023-04-15T06:20:50;5.60;;;2.10;;
22963;SDS011;11648;49.306;6.934;2023-04-15T06:23:18;6.60;;;2.20;;
22963;SDS011;11648;49.306;6.934;2023-04-15T06:25:46;5.93;;;2.10;;
22963;SDS011;11648;49.306;6.934;2023-04-15T06:28:14;5.23;;;1.87;;
22963;SDS011;11648;49.306;6.934;2023-04-15T06:30:42;5.23;;;1.90;;
22963;SDS011;11648;49.306;6.934;2023-04-15T06:33:10;4.03;;;1.90;;
22963;SDS011;11648;49.306;6.934;2023-04-15T06:35:38;5.37;;;2.50;;
22963;SDS011;11648;49.306;6.934;2023-04-15T06:38:06;7.33;;;2.40;;
22963;SDS011;11648;49.306;6.934;2023-04-15T06:40:34;7.53;;;2.60;;
22963;SDS011;11648;49.306;6.934;2023-04-15T06:43:02;6.13;;;2.77;;
22963;SDS011;11648;49.306;6.934;2023-04-15T06:45:31;7.27;;;2.20;;
22963;SDS011;11648;49.306;6.934;2023-04-15T06:47:59;6.17;;;2.23;;
22963;SDS011;11648;49.306;6.934;2023-04-15T06:50:27;3.93;;;1.90;;
22963;SDS011;11648;49.306;6.934;2023-04-15T06:52:55;5.60;;;2.30;;
22963;SDS011;11648;49.306;6.934;2023-04-15T06:55:24;6.57;;;2.50;;
22963;SDS011;11648;49.306;6.934;2023-04-15T06:57:51;4.83;;;2.23;;
22963;SDS011;11648;49.306;6.934;2023-04-15T07:00:20;5.63;;;2.23;;
22963;SDS011;11648;49.306;6.934;2023-04-15T07:02:48;7.23;;;2.60;;
22963;SDS011;11648;49.306;6.934;2023-04-15T07:05:16;5.17;;;2.60;;
22963;SDS011;11648;49.306;6.934;2023-04-15T07:07:44;6.20;;;2.10;;
22963;SDS011;11648;49.306;6.934;2023-04-15T07:10:12;4.27;;;1.90;;
22963;SDS011;11648;49.306;6.934;2023-04-15T07:12:42;4.77;;;2.10;;
22963;SDS011;11648;49.306;6.934;2023-04-15T07:15:10;5.80;;;2.00;;
22963;SDS011;11648;49.306;6.934;2023-04-15T07:17:40;5.23;;;1.90;;
22963;SDS011;11648;49.306;6.934;2023-04-15T07:20:09;4.73;;;1.80;;
22963;SDS011;11648;49.306;6.934;2023-04-15T07:22:38;5.83;;;1.87;;
22963;SDS011;11648;49.306;6.934;2023-04-15T07:25:06;3.90;;;1.67;;
22963;SDS011;11648;49.306;6.934;2023-04-15T07:27:35;4.80;;;2.00;;
22963;SDS011;11648;49.306;6.934;2023-04-15T07:30:03;5.70;;;2.10;;
22963;SDS011;11648;49.306;6.934;2023-04-15T07:32:32;5.40;;;2.27;;
22963;SDS011;11648;49.306;6.934;2023-04-15T07:35:00;5.73;;;2.20;;
22963;SDS011;11648;49.306;6.934;2023-04-15T07:37:28;5.17;;;2.10;;
22963;SDS011;11648;49.306;6.934;2023-04-15T07:39:56;6.20;;;2.30;;
22963;SDS011;11648;49.306;6.934;2023-04-15T07:42:24;5.77;;;2.20;;
22963;SDS011;11648;49.306;6.934;2023-04-15T07:44:53;5.13;;;1.70;;
22963;SDS011;11648;49.306;6.934;2023-04-15T07:47:21;3.73;;;2.00;;
22963;SDS011;11648;49.306;6.934;2023-04-15T07:49:49;6.00;;;2.23;;
22963;SDS011;11648;49.306;6.934;2023-04-15T07:52:18;5.63;;;1.88;;
22963;SDS011;11648;49.306;6.934;2023-04-15T07:54:46;4.95;;;1.80;;
22963;SDS011;11648;49.306;6.934;2023-04-15T07:57:14;4.43;;;2.03;;
22963;SDS011;11648;49.306;6.934;2023-04-15T07:59:43;4.75;;;1.83;;
22963;SDS011;11648;49.306;6.934;2023-04-15T08:02:11;4.57;;;2.17;;
22963;SDS011;11648;49.306;6.934;2023-04-15T08:04:39;6.20;;;2.40;;
22963;SDS011;11648;49.306;6.934;2023-04-15T08:07:08;4.30;;;1.90;;
22963;SDS011;11648;49.306;6.934;2023-04-15T08:09:35;6.20;;;2.40;;
22963;SDS011;11648;49.306;6.934;2023-04-15T08:12:04;6.20;;;1.83;;
22963;SDS011;11648;49.306;6.934;2023-04-15T08:14:32;4.35;;;1.88;;
22963;SDS011;11648;49.306;6.934;2023-04-15T08:17:00;4.97;;;1.50;;
22963;SDS011;11648;49.306;6.934;2023-04-15T08:19:28;5.45;;;1.55;;
22963;SDS011;11648;49.306;6.934;2023-04-15T08:21:57;3.67;;;1.90;;
22963;SDS011;11648;49.306;6.934;2023-04-15T08:24:25;4.50;;;1.80;;
22963;SDS011;11648;49.306;6.934;2023-04-15T08:26:53;4.78;;;1.88;;
22963;SDS011;11648;49.306;6.934;2023-04-15T08:29:22;6.72;;;1.70;;
22963;SDS011;11648;49.306;6.934;2023-04-15T08:31:50;4.63;;;1.80;;
22963;SDS011;11648;49.306;6.934;2023-04-15T08:34:18;5.20;;;1.83;;
22963;SDS011;11648;49.306;6.934;2023-04-15T08:36:46;4.82;;;1.60;;
22963;SDS011;11648;49.306;6.934;2023-04-15T08:39:14;4.78;;;1.55;;
22963;SDS011;11648;49.306;6.934;2023-04-15T08:41:46;5.40;;;1.73;;
22963;SDS011;11648;49.306;6.934;2023-04-15T08:44:18;5.45;;;1.80;;
22963;SDS011;11648;49.306;6.934;2023-04-15T08:46:48;4.55;;;1.73;;
22963;SDS011;11648;49.306;6.934;2023-04-15T08:49:18;4.32;;;1.63;;
22963;SDS011;11648;49.306;6.934;2023-04-15T08:51:49;4.50;;;1.70;;
22963;SDS011;11648;49.306;6.934;2023-04-15T08:54:17;3.72;;;1.40;;
22963;SDS011;11648;49.306;6.934;2023-04-15T08:56:45;3.90;;;1.52;;
22963;SDS011;11648;49.306;6.934;2023-04-15T08:59:14;4.70;;;1.80;;
22963;SDS011;11648;49.306;6.934;2023-04-15T09:01:43;4.93;;;1.80;;
22963;SDS011;11648;49.306;6.934;2023-04-15T09:04:12;4.63;;;1.58;;
22963;SDS011;11648;49.306;6.934;2023-04-15T09:06:41;4.10;;;1.33;;
22963;SDS011;11648;49.306;6.934;2023-04-15T09:09:09;5.20;;;1.23;;
22963;SDS011;11648;49.306;6.934;2023-04-15T09:11:37;3.88;;;1.13;;
22963;SDS011;11648;49.306;6.934;2023-04-15T09:14:05;4.28;;;1.33;;
22963;SDS011;11648;49.306;6.934;2023-04-15T09:19:28;3.70;;;1.48;;
22963;SDS011;11648;49.306;6.934;2023-04-15T09:21:57;4.88;;;1.70;;
22963;SDS011;11648;49.306;6.934;2023-04-15T09:24:33;4.40;;;1.40;;
22963;SDS011;11648;49.306;6.934;2023-04-15T09:27:04;4.25;;;1.27;;
22963;SDS011;11648;49.306;6.934;2023-04-15T09:29:32;4.53;;;1.60;;
22963;SDS011;11648;49.306;6.934;2023-04-15T09:32:10;4.43;;;1.40;;
22963;SDS011;11648;49.306;6.934;2023-04-15T09:34:42;3.88;;;1.50;;
22963;SDS011;11648;49.306;6.934;2023-04-15T09:37:11;4.00;;;1.40;;
22963;SDS011;11648;49.306;6.934;2023-04-15T09:39:58;4.85;;;1.30;;
22963;SDS011;11648;49.306;6.934;2023-04-15T09:42:26;2.95;;;0.95;;
22963;SDS011;11648;49.306;6.934;2023-04-15T09:44:54;3.95;;;1.10;;
22963;SDS011;11648;49.306;6.934;2023-04-15T09:47:26;3.22;;;1.10;;
22963;SDS011;11648;49.306;6.934;2023-04-15T09:49:59;4.03;;;1.42;;
22963;SDS011;11648;49.306;6.934;2023-04-15T09:52:28;2.78;;;1.08;;
22963;SDS011;11648;49.306;6.934;2023-04-15T09:54:57;3.38;;;1.10;;
22963;SDS011;11648;49.306;6.934;2023-04-15T09:57:36;6.10;;;1.20;;
22963;SDS011;11648;49.306;6.934;2023-04-15T10:00:06;3.65;;;1.02;;
22963;SDS011;11648;49.306;6.934;2023-04-15T10:02:36;3.67;;;1.00;;
22963;SDS011;11648;49.306;6.934;2023-04-15T10:05:07;3.22;;;1.10;;
22963;SDS011;11648;49.306;6.934;2023-04-15T10:07:38;3.38;;;1.02;;
22963;SDS011;11648;49.306;6.934;2023-04-15T10:10:08;2.58;;;0.80;;
22963;SDS011;11648;49.306;6.934;2023-04-15T10:12:37;2.30;;;0.80;;
22963;SDS011;11648;49.306;6.934;2023-04-15T10:15:11;3.50;;;0.95;;
22963;SDS011;11648;49.306;6.934;2023-04-15T10:17:43;3.67;;;1.20;;
22963;SDS011;11648;49.306;6.934;2023-04-15T10:20:12;3.78;;;1.00;;
22963;SDS011;11648;49.306;6.934;2023-04-15T10:22:41;3.13;;;1.05;;
22963;SDS011;11648;49.306;6.934;2023-04-15T10:25:12;3.55;;;1.00;;
22963;SDS011;11648;49.306;6.934;2023-04-15T10:27:42;3.55;;;0.90;;
22963;SDS011;11648;49.306;6.934;2023-04-15T10:30:10;3.15;;;1.02;;
22963;SDS011;11648;49.306;6.934;2023-04-15T10:32:39;2.95;;;1.00;;
22963;SDS011;11648;49.306;6.934;2023-04-15T10:35:08;3.83;;;1.30;;
22963;SDS011;11648;49.306;6.934;2023-04-15T10:37:37;3.78;;;1.25;;
22963;SDS011;11648;49.306;6.934;2023-04-15T10:43:00;2.90;;;0.90;;
22963;SDS011;11648;49.306;6.934;2023-04-15T10:45:33;3.72;;;1.00;;
22963;SDS011;11648;49.306;6.934;2023-04-15T10:48:05;3.35;;;0.90;;
22963;SDS011;11648;49.306;6.934;2023-04-15T10:50:34;3.92;;;1.10;;
22963;SDS011;11648;49.306;6.934;2023-04-15T10:53:04;3.53;;;0.95;;
22963;SDS011;11648;49.306;6.934;2023-04-15T10:55:32;2.92;;;1.08;;
22963;SDS011;11648;49.306;6.934;2023-04-15T10:58:01;3.97;;;1.20;;
22963;SDS011;11648;49.306;6.934;2023-04-15T11:00:30;3.55;;;1.10;;
22963;SDS011;11648;49.306;6.934;2023-04-15T11:03:04;3.65;;;1.20;;
22963;SDS011;11648;49.306;6.934;2023-04-15T11:08:09;4.05;;;1.17;;
22963;SDS011;11648;49.306;6.934;2023-04-15T11:15:42;2.95;;;0.80;;
22963;SDS011;11648;49.306;6.934;2023-04-15T11:18:21;3.08;;;0.85;;
22963;SDS011;11648;49.306;6.934;2023-04-15T11:20:55;3.55;;;0.90;;
22963;SDS011;11648;49.306;6.934;2023-04-15T11:23:26;4.63;;;1.20;;
22963;SDS011;11648;49.306;6.934;2023-04-15T11:25:55;4.13;;;1.07;;
22963;SDS011;11648;49.306;6.934;2023-04-15T11:28:29;4.73;;;1.00;;
22963;SDS011;11648;49.306;6.934;2023-04-15T11:30:59;3.27;;;1.00;;
22963;SDS011;11648;49.306;6.934;2023-04-15T11:33:33;5.70;;;1.10;;
22963;SDS011;11648;49.306;6.934;2023-04-15T11:36:01;3.40;;;0.90;;
22963;SDS011;11648;49.306;6.934;2023-04-15T11:38:30;2.97;;;1.00;;
22963;SDS011;11648;49.306;6.934;2023-04-15T11:41:00;3.40;;;1.07;;
22963;SDS011;11648;49.306;6.934;2023-04-15T11:43:28;3.55;;;0.90;;
22963;SDS011;11648;49.306;6.934;2023-04-15T11:45:59;3.83;;;1.10;;
22963;SDS011;11648;49.306;6.934;2023-04-15T11:48:30;3.72;;;1.00;;
22963;SDS011;11648;49.306;6.934;2023-04-15T11:51:03;3.20;;;0.88;;
22963;SDS011;11648;49.306;6.934;2023-04-15T11:56:05;4.43;;;1.17;;
22963;SDS011;11648;49.306;6.934;2023-04-15T11:58:33;3.40;;;1.17;;
22963;SDS011;11648;49.306;6.934;2023-04-15T12:01:03;4.47;;;1.17;;
22963;SDS011;11648;49.306;6.934;2023-04-15T12:06:13;4.18;;;1.00;;
22963;SDS011;11648;49.306;6.934;2023-04-15T12:11:16;2.83;;;1.05;;
22963;SDS011;11648;49.306;6.934;2023-04-15T12:13:46;3.92;;;1.13;;
22963;SDS011;11648;49.306;6.934;2023-04-15T12:16:18;5.28;;;0.90;;
22963;SDS011;11648;49.306;6.934;2023-04-15T12:18:45;3.92;;;1.00;;
22963;SDS011;11648;49.306;6.934;2023-04-15T12:21:13;3.13;;;1.00;;
22963;SDS011;11648;49.306;6.934;2023-04-15T12:23:47;3.28;;;1.00;;
22963;SDS011;11648;49.306;6.934;2023-04-15T12:26:53;3.05;;;0.80;;
22963;SDS011;11648;49.306;6.934;2023-04-15T12:29:16;4.03;;;1.08;;
22963;SDS011;11648;49.306;6.934;2023-04-15T12:34:18;3.05;;;0.90;;
22963;SDS011;11648;49.306;6.934;2023-04-15T12:36:56;4.65;;;0.93;;
22963;SDS011;11648;49.306;6.934;2023-04-15T12:39:25;2.83;;;0.90;;
22963;SDS011;11648;49.306;6.934;2023-04-15T12:41:56;4.00;;;1.00;;
22963;SDS011;11648;49.306;6.934;2023-04-15T12:44:24;3.77;;;1.13;;
22963;SDS011;11648;49.306;6.934;2023-04-15T12:46:51;4.83;;;1.60;;
22963;SDS011;11648;49.306;6.934;2023-04-15T12:49:22;3.80;;;1.27;;
22963;SDS011;11648;49.306;6.934;2023-04-15T12:51:50;4.40;;;1.10;;
22963;SDS011;11648;49.306;6.934;2023-04-15T12:54:18;5.63;;;1.30;;
22963;SDS011;11648;49.306;6.934;2023-04-15T12:56:46;4.83;;;1.60;;
22963;SDS011;11648;49.306;6.934;2023-04-15T12:59:13;5.37;;;1.33;;
22963;SDS011;11648;49.306;6.934;2023-04-15T13:01:42;4.53;;;1.50;;
22963;SDS011;11648;49.306;6.934;2023-04-15T13:04:08;3.63;;;1.60;;
22963;SDS011;11648;49.306;6.934;2023-04-15T13:06:36;5.97;;;1.60;;
22963;SDS011;11648;49.306;6.934;2023-04-15T13:09:03;3.53;;;1.43;;
22963;SDS011;11648;49.306;6.934;2023-04-15T13:11:32;5.07;;;1.40;;
22963;SDS011;11648;49.306;6.934;2023-04-15T13:13:59;5.20;;;1.10;;
22963;SDS011;11648;49.306;6.934;2023-04-15T13:16:27;2.63;;;1.00;;
22963;SDS011;11648;49.306;6.934;2023-04-15T13:18:54;3.60;;;1.20;;
22963;SDS011;11648;49.306;6.934;2023-04-15T13:21:21;4.53;;;1.03;;
22963;SDS011;11648;49.306;6.934;2023-04-15T13:23:48;4.77;;;1.17;;
22963;SDS011;11648;49.306;6.934;2023-04-15T13:26:17;3.63;;;1.10;;
22963;SDS011;11648;49.306;6.934;2023-04-15T13:28:45;3.17;;;0.90;;
22963;SDS011;11648;49.306;6.934;2023-04-15T13:31:12;4.47;;;1.20;;
22963;SDS011;11648;49.306;6.934;2023-04-15T13:33:39;3.70;;;2.20;;
22963;SDS011;11648;49.306;6.934;2023-04-15T13:36:05;4.50;;;2.00;;
22963;SDS011;11648;49.306;6.934;2023-04-15T13:38:33;4.40;;;1.70;;
22963;SDS011;11648;49.306;6.934;2023-04-15T13:41:00;2.20;;;1.20;;
22963;SDS011;11648;49.306;6.934;2023-04-15T13:43:27;4.40;;;1.50;;
22963;SDS011;11648;49.306;6.934;2023-04-15T13:45:54;4.00;;;1.17;;
22963;SDS011;11648;49.306;6.934;2023-04-15T13:48:21;2.33;;;0.93;;
22963;SDS011;11648;49.306;6.934;2023-04-15T13:50:47;2.07;;;0.90;;
22963;SDS011;11648;49.306;6.934;2023-04-15T13:53:14;3.07;;;1.00;;
22963;SDS011;11648;49.306;6.934;2023-04-15T13:55:41;2.83;;;1.13;;
22963;SDS011;11648;49.306;6.934;2023-04-15T13:58:08;3.20;;;0.87;;
22963;SDS011;11648;49.306;6.934;2023-04-15T14:00:35;4.43;;;1.00;;
22963;SDS011;11648;49.306;6.934;2023-04-15T14:03:02;3.10;;;0.80;;
22963;SDS011;11648;49.306;6.934;2023-04-15T14:05:30;3.33;;;0.90;;
22963;SDS011;11648;49.306;6.934;2023-04-15T14:07:58;1.63;;;0.70;;
22963;SDS011;11648;49.306;6.934;2023-04-15T14:10:25;2.27;;;0.80;;
22963;SDS011;11648;49.306;6.934;2023-04-15T14:12:52;2.03;;;0.70;;
22963;SDS011;11648;49.306;6.934;2023-04-15T14:15:18;3.50;;;1.00;;
22963;SDS011;11648;49.306;6.934;2023-04-15T14:17:46;4.70;;;1.47;;
22963;SDS011;11648;49.306;6.934;2023-04-15T14:20:13;1.70;;;0.80;;
22963;SDS011;11648;49.306;6.934;2023-04-15T14:22:42;2.07;;;0.83;;
22963;SDS011;11648;49.306;6.934;2023-04-15T14:25:09;2.70;;;1.07;;
22963;SDS011;11648;49.306;6.934;2023-04-15T14:27:45;2.43;;;0.97;;
22963;SDS011;11648;49.306;6.934;2023-04-15T14:30:12;2.30;;;1.00;;
22963;SDS011;11648;49.306;6.934;2023-04-15T14:32:39;3.03;;;1.23;;
22963;SDS011;11648;49.306;6.934;2023-04-15T14:35:07;5.33;;;2.80;;
22963;SDS011;11648;49.306;6.934;2023-04-15T14:37:34;3.77;;;1.13;;
22963;SDS011;11648;49.306;6.934;2023-04-15T14:40:01;3.60;;;1.10;;
22963;SDS011;11648;49.306;6.934;2023-04-15T14:42:28;3.33;;;1.00;;
22963;SDS011;11648;49.306;6.934;2023-04-15T14:44:55;2.97;;;0.90;;
22963;SDS011;11648;49.306;6.934;2023-04-15T14:47:21;3.43;;;1.03;;
22963;SDS011;11648;49.306;6.934;2023-04-15T14:49:48;2.73;;;1.30;;
22963;SDS011;11648;49.306;6.934;2023-04-15T14:52:16;2.27;;;1.00;;
22963;SDS011;11648;49.306;6.934;2023-04-15T14:54:42;3.37;;;1.33;;
22963;SDS011;11648;49.306;6.934;2023-04-15T14:57:09;3.20;;;1.30;;
22963;SDS011;11648;49.306;6.934;2023-04-15T14:59:36;3.47;;;1.40;;
22963;SDS011;11648;49.306;6.934;2023-04-15T15:02:03;2.83;;;1.20;;
22963;SDS011;11648;49.306;6.934;2023-04-15T15:04:30;3.23;;;1.67;;
22963;SDS011;11648;49.306;6.934;2023-04-15T15:06:58;2.60;;;1.70;;
22963;SDS011;11648;49.306;6.934;2023-04-15T15:09:26;2.70;;;1.67;;
22963;SDS011;11648;49.306;6.934;2023-04-15T15:11:52;3.73;;;1.60;;
22963;SDS011;11648;49.306;6.934;2023-04-15T15:14:19;3.50;;;1.53;;
22963;SDS011;11648;49.306;6.934;2023-04-15T15:16:46;3.23;;;1.40;;
22963;SDS011;11648;49.306;6.934;2023-04-15T15:19:13;3.47;;;1.10;;
22963;SDS011;11648;49.306;6.934;2023-04-15T15:21:39;3.27;;;1.23;;